RYR76SW EGSS-EDDK
Flight info
| Callsign | RYR76SW |
|---|---|
| Flight time | 0h 54m |
| Altitude | 33000 |
| Route | CLN M84 KONAN UL607 SPI T857 DENOV T861 ERUKI T856 DEPOK DEPOK2C |
| Aircraft | B738/M-SDE2E3FGHIRWXY/LB1 |
Departure
| Time | 2026-04-24 20:59 |
|---|---|
| Airport | London Stansted Airport (EGSS) |
Arrival
| Time | 2026-04-24 21:53 |
|---|---|
| Airport | Cologne Bonn Airport (EDDK) |
| Time | Latitude | Longitude | Altitude | Speed | Heading |
|---|---|---|---|---|---|
| 2026-04-24 20:03 | 51.89197 | 0.25671 | 321 ft | 0 kts | 223° |
| 2026-04-24 20:42 | 51.89200 | 0.25675 | 348 ft | 2 kts | 223° |
| 2026-04-24 20:42 | 51.89212 | 0.25693 | 356 ft | 2 kts | 227° |
| 2026-04-24 20:42 | 51.89223 | 0.25713 | 355 ft | 2 kts | 230° |
| 2026-04-24 20:42 | 51.89233 | 0.25734 | 357 ft | 2 kts | 235° |
| 2026-04-24 20:43 | 51.89242 | 0.25757 | 358 ft | 2 kts | 243° |
| 2026-04-24 20:43 | 51.89248 | 0.25782 | 358 ft | 2 kts | 259° |
| 2026-04-24 20:43 | 51.89249 | 0.25809 | 358 ft | 2 kts | 284° |
| 2026-04-24 20:43 | 51.89242 | 0.25832 | 356 ft | 2 kts | 309° |
| 2026-04-24 20:44 | 51.89238 | 0.25840 | 356 ft | 0 kts | 313° |
| 2026-04-24 20:45 | 51.89240 | 0.25837 | 356 ft | 2 kts | 314° |
| 2026-04-24 20:45 | 51.89266 | 0.25794 | 354 ft | 10 kts | 313° |
| 2026-04-24 20:46 | 51.89318 | 0.25701 | 348 ft | 11 kts | 312° |
| 2026-04-24 20:46 | 51.89362 | 0.25618 | 349 ft | 9 kts | 301° |
| 2026-04-24 20:46 | 51.89344 | 0.25533 | 348 ft | 7 kts | 227° |
| 2026-04-24 20:46 | 51.89303 | 0.25467 | 348 ft | 10 kts | 223° |
| 2026-04-24 20:47 | 51.89252 | 0.25391 | 348 ft | 11 kts | 222° |
| 2026-04-24 20:47 | 51.89189 | 0.25298 | 350 ft | 13 kts | 222° |
| 2026-04-24 20:47 | 51.89123 | 0.25200 | 348 ft | 13 kts | 223° |
| 2026-04-24 20:47 | 51.89058 | 0.25102 | 352 ft | 12 kts | 223° |
| 2026-04-24 20:48 | 51.88988 | 0.24996 | 348 ft | 19 kts | 223° |
| 2026-04-24 20:48 | 51.88858 | 0.24802 | 348 ft | 28 kts | 223° |
| 2026-04-24 20:48 | 51.88714 | 0.24583 | 355 ft | 28 kts | 223° |
| 2026-04-24 20:48 | 51.88578 | 0.24380 | 350 ft | 26 kts | 223° |
| 2026-04-24 20:49 | 51.88452 | 0.24192 | 353 ft | 24 kts | 224° |
| 2026-04-24 20:49 | 51.88332 | 0.24010 | 351 ft | 23 kts | 222° |
| 2026-04-24 20:49 | 51.88196 | 0.23807 | 348 ft | 27 kts | 223° |
| 2026-04-24 20:49 | 51.88058 | 0.23601 | 351 ft | 27 kts | 223° |
| 2026-04-24 20:50 | 51.87924 | 0.23400 | 349 ft | 25 kts | 223° |
| 2026-04-24 20:50 | 51.87801 | 0.23214 | 348 ft | 24 kts | 223° |
| 2026-04-24 20:50 | 51.87732 | 0.23056 | 348 ft | 12 kts | 281° |
| 2026-04-24 20:50 | 51.87781 | 0.22947 | 353 ft | 13 kts | 312° |
| 2026-04-24 20:51 | 51.87840 | 0.22845 | 347 ft | 13 kts | 313° |
| 2026-04-24 20:51 | 51.87874 | 0.22786 | 348 ft | 0 kts | 312° |
| 2026-04-24 20:54 | 51.87884 | 0.22767 | 350 ft | 11 kts | 312° |
| 2026-04-24 20:54 | 51.87937 | 0.22674 | 343 ft | 6 kts | 321° |
| 2026-04-24 20:54 | 51.87980 | 0.22700 | 337 ft | 7 kts | 42° |
| 2026-04-24 20:54 | 51.87982 | 0.22702 | 338 ft | 0 kts | 42° |
| 2026-04-24 20:58 | 51.87999 | 0.22727 | 336 ft | 24 kts | 42° |
| 2026-04-24 20:59 | 51.88365 | 0.23278 | 336 ft | 117 kts | 43° |
| 2026-04-24 20:59 | 51.89121 | 0.24448 | 597 ft | 169 kts | 46° |
| 2026-04-24 20:59 | 51.89955 | 0.25729 | 1846 ft | 161 kts | 45° |
| 2026-04-24 20:59 | 51.90771 | 0.26977 | 2927 ft | 163 kts | 43° |
| 2026-04-24 21:00 | 51.91473 | 0.28432 | 3599 ft | 173 kts | 67° |
| 2026-04-24 21:00 | 51.91707 | 0.30470 | 4002 ft | 202 kts | 92° |
| 2026-04-24 21:00 | 51.91331 | 0.32867 | 4016 ft | 235 kts | 112° |
| 2026-04-24 21:00 | 51.90612 | 0.35319 | 4005 ft | 250 kts | 115° |
| 2026-04-24 21:01 | 51.89829 | 0.37919 | 3981 ft | 259 kts | 115° |
| 2026-04-24 21:01 | 51.89049 | 0.40563 | 3993 ft | 260 kts | 115° |
| 2026-04-24 21:01 | 51.88260 | 0.43201 | 3990 ft | 261 kts | 115° |
| 2026-04-24 21:01 | 51.87475 | 0.45845 | 3998 ft | 260 kts | 115° |
| 2026-04-24 21:02 | 51.86693 | 0.48490 | 4005 ft | 261 kts | 115° |
| 2026-04-24 21:02 | 51.85912 | 0.51143 | 4001 ft | 261 kts | 115° |
| 2026-04-24 21:02 | 51.85131 | 0.53798 | 4005 ft | 262 kts | 115° |
| 2026-04-24 21:02 | 51.84351 | 0.56450 | 3998 ft | 262 kts | 115° |
| 2026-04-24 21:03 | 51.83585 | 0.59129 | 4007 ft | 263 kts | 110° |
| 2026-04-24 21:03 | 51.83103 | 0.62021 | 4454 ft | 268 kts | 99° |
| 2026-04-24 21:03 | 51.82923 | 0.65019 | 4920 ft | 271 kts | 90° |
| 2026-04-24 21:03 | 51.83026 | 0.68031 | 4975 ft | 271 kts | 85° |
| 2026-04-24 21:04 | 51.83184 | 0.71093 | 4981 ft | 269 kts | 85° |
| 2026-04-24 21:04 | 51.83338 | 0.74098 | 5055 ft | 271 kts | 85° |
| 2026-04-24 21:04 | 51.83462 | 0.77154 | 5674 ft | 274 kts | 86° |
| 2026-04-24 21:04 | 51.83582 | 0.80271 | 5951 ft | 278 kts | 86° |
| 2026-04-24 21:05 | 51.83695 | 0.83346 | 5982 ft | 276 kts | 86° |
| 2026-04-24 21:05 | 51.83805 | 0.86429 | 5976 ft | 274 kts | 86° |
| 2026-04-24 21:05 | 51.83915 | 0.89479 | 5974 ft | 272 kts | 86° |
| 2026-04-24 21:05 | 51.84024 | 0.92546 | 5990 ft | 273 kts | 86° |
| 2026-04-24 21:06 | 51.84134 | 0.95623 | 5984 ft | 274 kts | 86° |
| 2026-04-24 21:06 | 51.84243 | 0.98701 | 5982 ft | 275 kts | 86° |
| 2026-04-24 21:06 | 51.84353 | 1.01793 | 5983 ft | 275 kts | 86° |
| 2026-04-24 21:06 | 51.84460 | 1.04885 | 5976 ft | 275 kts | 86° |
| 2026-04-24 21:07 | 51.84567 | 1.07975 | 5968 ft | 275 kts | 86° |
| 2026-04-24 21:07 | 51.84671 | 1.11054 | 5988 ft | 275 kts | 87° |
| 2026-04-24 21:07 | 51.84351 | 1.14079 | 5987 ft | 276 kts | 114° |
| 2026-04-24 21:07 | 51.83189 | 1.16546 | 6167 ft | 281 kts | 140° |
| 2026-04-24 21:08 | 51.81572 | 1.18364 | 7011 ft | 284 kts | 146° |
| 2026-04-24 21:08 | 51.79916 | 1.20116 | 7999 ft | 285 kts | 147° |
| 2026-04-24 21:08 | 51.78239 | 1.21868 | 8899 ft | 290 kts | 147° |
| 2026-04-24 21:08 | 51.76534 | 1.23652 | 9773 ft | 295 kts | 147° |
| 2026-04-24 21:09 | 51.74798 | 1.25472 | 10598 ft | 301 kts | 147° |
| 2026-04-24 21:09 | 51.72977 | 1.27387 | 10912 ft | 326 kts | 147° |
| 2026-04-24 21:09 | 51.71014 | 1.29453 | 11309 ft | 344 kts | 147° |
| 2026-04-24 21:09 | 51.68994 | 1.31579 | 12055 ft | 350 kts | 147° |
| 2026-04-24 21:10 | 51.66950 | 1.33717 | 12960 ft | 351 kts | 149° |
| 2026-04-24 21:10 | 51.64741 | 1.35408 | 13876 ft | 351 kts | 162° |
| 2026-04-24 21:10 | 51.62377 | 1.36359 | 14688 ft | 352 kts | 173° |
| 2026-04-24 21:10 | 51.59925 | 1.36640 | 15435 ft | 355 kts | 179° |
| 2026-04-24 21:11 | 51.57476 | 1.36746 | 16167 ft | 358 kts | 180° |
| 2026-04-24 21:11 | 51.54974 | 1.36835 | 16904 ft | 362 kts | 180° |
| 2026-04-24 21:11 | 51.52439 | 1.36953 | 17636 ft | 366 kts | 180° |
| 2026-04-24 21:11 | 51.49880 | 1.37098 | 18373 ft | 370 kts | 179° |
| 2026-04-24 21:12 | 51.47297 | 1.37256 | 19021 ft | 374 kts | 180° |
| 2026-04-24 21:12 | 51.45545 | 1.37531 | 19413 ft | 379 kts | 170° |
| 2026-04-24 21:12 | 51.42361 | 1.39968 | 20170 ft | 393 kts | 143° |
| 2026-04-24 21:12 | 51.40486 | 1.43211 | 20737 ft | 401 kts | 130° |
| 2026-04-24 21:13 | 51.38769 | 1.46781 | 21250 ft | 407 kts | 129° |
| 2026-04-24 21:13 | 51.37060 | 1.50436 | 21760 ft | 414 kts | 129° |
| 2026-04-24 21:13 | 51.35324 | 1.54149 | 22295 ft | 419 kts | 129° |
| 2026-04-24 21:13 | 51.33571 | 1.57862 | 22820 ft | 423 kts | 129° |
| 2026-04-24 21:14 | 51.31764 | 1.61646 | 23338 ft | 428 kts | 130° |
| 2026-04-24 21:14 | 51.29941 | 1.65434 | 23849 ft | 433 kts | 130° |
| 2026-04-24 21:14 | 51.28091 | 1.69257 | 24308 ft | 436 kts | 130° |
| 2026-04-24 21:14 | 51.26229 | 1.73093 | 24795 ft | 438 kts | 130° |
| 2026-04-24 21:15 | 51.24360 | 1.76939 | 25291 ft | 440 kts | 130° |
| 2026-04-24 21:15 | 51.22478 | 1.80805 | 25743 ft | 443 kts | 130° |
| 2026-04-24 21:15 | 51.20581 | 1.84699 | 26195 ft | 445 kts | 130° |
| 2026-04-24 21:15 | 51.18670 | 1.88617 | 26636 ft | 448 kts | 130° |
| 2026-04-24 21:16 | 51.16753 | 1.92540 | 27075 ft | 451 kts | 130° |
| 2026-04-24 21:16 | 51.14925 | 1.96609 | 27502 ft | 455 kts | 122° |
| 2026-04-24 21:16 | 51.13563 | 2.01179 | 27921 ft | 459 kts | 111° |
| 2026-04-24 21:16 | 51.12700 | 2.06068 | 28344 ft | 463 kts | 100° |
| 2026-04-24 21:17 | 51.12336 | 2.11193 | 28755 ft | 465 kts | 95° |
| 2026-04-24 21:17 | 51.12096 | 2.16338 | 29137 ft | 468 kts | 94° |
| 2026-04-24 21:17 | 51.11874 | 2.21519 | 29501 ft | 471 kts | 94° |
| 2026-04-24 21:17 | 51.11718 | 2.24970 | 29749 ft | 472 kts | 94° |
| 2026-04-24 21:18 | 51.11376 | 2.31907 | 30388 ft | 471 kts | 95° |
| 2026-04-24 21:18 | 51.11096 | 2.37124 | 30880 ft | 469 kts | 95° |
| 2026-04-24 21:18 | 51.10810 | 2.42264 | 31319 ft | 467 kts | 95° |
| 2026-04-24 21:18 | 51.10517 | 2.47429 | 31697 ft | 468 kts | 95° |
| 2026-04-24 21:19 | 51.10224 | 2.52580 | 32065 ft | 468 kts | 95° |
| 2026-04-24 21:19 | 51.09931 | 2.57726 | 32476 ft | 467 kts | 95° |
| 2026-04-24 21:19 | 51.09635 | 2.62837 | 32907 ft | 466 kts | 96° |
| 2026-04-24 21:19 | 51.09343 | 2.66237 | 33166 ft | 465 kts | 101° |
| 2026-04-24 21:20 | 51.06699 | 2.81233 | 33234 ft | 468 kts | 108° |
| 2026-04-24 21:21 | 51.04835 | 2.91039 | 33239 ft | 462 kts | 107° |
| 2026-04-24 21:21 | 51.03016 | 3.00841 | 33247 ft | 464 kts | 107° |
| 2026-04-24 21:22 | 51.01201 | 3.10717 | 33250 ft | 466 kts | 107° |
| 2026-04-24 21:22 | 50.99377 | 3.20601 | 33240 ft | 466 kts | 107° |
| 2026-04-24 21:23 | 50.97542 | 3.30480 | 33237 ft | 466 kts | 107° |
| 2026-04-24 21:23 | 50.95701 | 3.40337 | 33230 ft | 466 kts | 107° |
| 2026-04-24 21:24 | 50.93857 | 3.50161 | 33231 ft | 464 kts | 107° |
| 2026-04-24 21:24 | 50.92009 | 3.59958 | 33228 ft | 463 kts | 108° |
| 2026-04-24 21:25 | 50.90164 | 3.69633 | 33234 ft | 461 kts | 108° |
| 2026-04-24 21:25 | 50.88288 | 3.79313 | 33233 ft | 460 kts | 108° |
| 2026-04-24 21:26 | 50.86404 | 3.88988 | 33232 ft | 459 kts | 108° |
| 2026-04-24 21:26 | 50.84522 | 3.98620 | 33232 ft | 457 kts | 108° |
| 2026-04-24 21:27 | 50.82652 | 4.08151 | 33236 ft | 453 kts | 108° |
| 2026-04-24 21:27 | 50.80778 | 4.17655 | 33139 ft | 454 kts | 108° |
| 2026-04-24 21:27 | 50.79836 | 4.22418 | 32770 ft | 451 kts | 108° |
| 2026-04-24 21:28 | 50.78903 | 4.27124 | 32344 ft | 447 kts | 108° |
| 2026-04-24 21:28 | 50.77977 | 4.31780 | 31941 ft | 442 kts | 109° |
| 2026-04-24 21:28 | 50.77056 | 4.36400 | 31522 ft | 439 kts | 109° |
| 2026-04-24 21:28 | 50.76141 | 4.40984 | 31117 ft | 436 kts | 109° |
| 2026-04-24 21:29 | 50.75231 | 4.45528 | 30703 ft | 433 kts | 109° |
| 2026-04-24 21:29 | 50.74326 | 4.50041 | 30283 ft | 430 kts | 109° |
| 2026-04-24 21:29 | 50.73422 | 4.54535 | 29800 ft | 427 kts | 109° |
| 2026-04-24 21:29 | 50.72525 | 4.58987 | 29363 ft | 423 kts | 109° |
| 2026-04-24 21:30 | 50.71649 | 4.63381 | 28990 ft | 418 kts | 108° |
| 2026-04-24 21:30 | 50.70800 | 4.67751 | 28587 ft | 414 kts | 108° |
| 2026-04-24 21:30 | 50.69967 | 4.72071 | 28170 ft | 411 kts | 108° |
| 2026-04-24 21:30 | 50.69135 | 4.76372 | 27745 ft | 408 kts | 108° |
| 2026-04-24 21:31 | 50.68309 | 4.80626 | 27323 ft | 405 kts | 108° |
| 2026-04-24 21:31 | 50.67484 | 4.84853 | 26912 ft | 402 kts | 109° |
| 2026-04-24 21:31 | 50.66662 | 4.89048 | 26505 ft | 400 kts | 109° |
| 2026-04-24 21:31 | 50.65837 | 4.93227 | 26088 ft | 398 kts | 109° |
| 2026-04-24 21:32 | 50.64999 | 4.97368 | 25681 ft | 396 kts | 110° |
| 2026-04-24 21:32 | 50.64155 | 5.01479 | 25285 ft | 394 kts | 110° |
| 2026-04-24 21:32 | 50.63310 | 5.05583 | 24885 ft | 392 kts | 110° |
| 2026-04-24 21:32 | 50.62469 | 5.09663 | 24479 ft | 391 kts | 110° |
| 2026-04-24 21:33 | 50.61634 | 5.13717 | 24057 ft | 390 kts | 110° |
| 2026-04-24 21:33 | 50.60798 | 5.17769 | 23626 ft | 389 kts | 110° |
| 2026-04-24 21:33 | 50.59960 | 5.21832 | 23175 ft | 388 kts | 110° |
| 2026-04-24 21:33 | 50.59129 | 5.25851 | 22747 ft | 385 kts | 110° |
| 2026-04-24 21:34 | 50.58301 | 5.29848 | 22335 ft | 383 kts | 110° |
| 2026-04-24 21:34 | 50.57476 | 5.33824 | 21934 ft | 380 kts | 110° |
| 2026-04-24 21:34 | 50.56675 | 5.37677 | 21548 ft | 378 kts | 110° |
| 2026-04-24 21:34 | 50.55855 | 5.41615 | 21154 ft | 375 kts | 110° |
| 2026-04-24 21:35 | 50.55034 | 5.45549 | 20758 ft | 373 kts | 110° |
| 2026-04-24 21:35 | 50.54227 | 5.49414 | 20375 ft | 371 kts | 109° |
| 2026-04-24 21:35 | 50.53434 | 5.53198 | 19994 ft | 368 kts | 109° |
| 2026-04-24 21:35 | 50.52632 | 5.57014 | 19610 ft | 366 kts | 109° |
| 2026-04-24 21:36 | 50.52080 | 5.60907 | 19217 ft | 366 kts | 95° |
| 2026-04-24 21:36 | 50.52131 | 5.64876 | 18934 ft | 361 kts | 81° |
| 2026-04-24 21:36 | 50.52716 | 5.68673 | 18619 ft | 357 kts | 71° |
| 2026-04-24 21:36 | 50.53497 | 5.72361 | 18235 ft | 354 kts | 70° |
| 2026-04-24 21:37 | 50.54300 | 5.76010 | 17830 ft | 353 kts | 70° |
| 2026-04-24 21:37 | 50.55097 | 5.79641 | 17438 ft | 350 kts | 70° |
| 2026-04-24 21:37 | 50.55880 | 5.83257 | 17063 ft | 348 kts | 70° |
| 2026-04-24 21:37 | 50.56647 | 5.86849 | 16685 ft | 346 kts | 70° |
| 2026-04-24 21:38 | 50.57405 | 5.90434 | 16314 ft | 343 kts | 71° |
| 2026-04-24 21:38 | 50.58150 | 5.93983 | 15943 ft | 341 kts | 71° |
| 2026-04-24 21:38 | 50.58889 | 5.97517 | 15580 ft | 339 kts | 71° |
| 2026-04-24 21:38 | 50.59624 | 6.01040 | 15218 ft | 337 kts | 71° |
| 2026-04-24 21:39 | 50.60351 | 6.04531 | 14857 ft | 335 kts | 71° |
| 2026-04-24 21:39 | 50.61075 | 6.08013 | 14494 ft | 334 kts | 71° |
| 2026-04-24 21:39 | 50.61795 | 6.11481 | 14139 ft | 332 kts | 71° |
| 2026-04-24 21:39 | 50.62509 | 6.14929 | 13747 ft | 331 kts | 71° |
| 2026-04-24 21:40 | 50.63219 | 6.18369 | 13357 ft | 329 kts | 71° |
| 2026-04-24 21:40 | 50.63643 | 6.21894 | 13006 ft | 327 kts | 87° |
| 2026-04-24 21:40 | 50.63522 | 6.25433 | 12760 ft | 321 kts | 95° |
| 2026-04-24 21:40 | 50.63304 | 6.28926 | 12404 ft | 319 kts | 95° |
| 2026-04-24 21:41 | 50.63093 | 6.32399 | 12059 ft | 317 kts | 94° |
| 2026-04-24 21:41 | 50.62896 | 6.35839 | 11716 ft | 315 kts | 94° |
| 2026-04-24 21:41 | 50.62713 | 6.39272 | 11371 ft | 313 kts | 94° |
| 2026-04-24 21:41 | 50.62536 | 6.42673 | 11039 ft | 311 kts | 94° |
| 2026-04-24 21:42 | 50.62360 | 6.46073 | 10694 ft | 310 kts | 94° |
| 2026-04-24 21:42 | 50.62186 | 6.49414 | 10516 ft | 303 kts | 94° |
| 2026-04-24 21:42 | 50.62014 | 6.52683 | 10363 ft | 295 kts | 94° |
| 2026-04-24 21:42 | 50.61847 | 6.55844 | 10233 ft | 287 kts | 94° |
| 2026-04-24 21:43 | 50.61681 | 6.58968 | 9948 ft | 285 kts | 94° |
| 2026-04-24 21:43 | 50.61518 | 6.62054 | 9655 ft | 282 kts | 94° |
| 2026-04-24 21:43 | 50.61353 | 6.65127 | 9353 ft | 281 kts | 94° |
| 2026-04-24 21:43 | 50.61187 | 6.68178 | 9074 ft | 279 kts | 94° |
| 2026-04-24 21:44 | 50.61023 | 6.71204 | 8790 ft | 277 kts | 93° |
| 2026-04-24 21:44 | 50.61127 | 6.73740 | 8521 ft | 273 kts | 72° |
| 2026-04-24 21:44 | 50.62020 | 6.76311 | 8302 ft | 265 kts | 47° |
| 2026-04-24 21:44 | 50.63427 | 6.78129 | 8047 ft | 261 kts | 32° |
| 2026-04-24 21:45 | 50.64950 | 6.79673 | 7766 ft | 260 kts | 32° |
| 2026-04-24 21:45 | 50.66466 | 6.81210 | 7486 ft | 259 kts | 32° |
| 2026-04-24 21:45 | 50.67979 | 6.82762 | 7213 ft | 258 kts | 32° |
| 2026-04-24 21:45 | 50.69316 | 6.84142 | 6966 ft | 257 kts | 32° |
| 2026-04-24 21:46 | 50.70718 | 6.85884 | 6666 ft | 258 kts | 50° |
| 2026-04-24 21:46 | 50.71514 | 6.88404 | 6404 ft | 259 kts | 74° |
| 2026-04-24 21:46 | 50.71825 | 6.91179 | 6136 ft | 258 kts | 79° |
| 2026-04-24 21:46 | 50.72063 | 6.93956 | 5844 ft | 257 kts | 80° |
| 2026-04-24 21:47 | 50.72295 | 6.96749 | 5575 ft | 256 kts | 80° |
| 2026-04-24 21:47 | 50.72452 | 6.98620 | 5391 ft | 255 kts | 80° |
| 2026-04-24 21:47 | 50.72767 | 7.02288 | 5035 ft | 254 kts | 80° |
| 2026-04-24 21:47 | 50.73008 | 7.05053 | 4619 ft | 258 kts | 80° |
| 2026-04-24 21:48 | 50.73256 | 7.07877 | 4297 ft | 259 kts | 80° |
| 2026-04-24 21:48 | 50.73500 | 7.10655 | 4147 ft | 252 kts | 80° |
| 2026-04-24 21:48 | 50.73738 | 7.13358 | 4012 ft | 245 kts | 80° |
| 2026-04-24 21:48 | 50.73970 | 7.15979 | 3899 ft | 238 kts | 80° |
| 2026-04-24 21:49 | 50.74195 | 7.18528 | 3795 ft | 230 kts | 80° |
| 2026-04-24 21:49 | 50.74411 | 7.20992 | 3682 ft | 223 kts | 80° |
| 2026-04-24 21:49 | 50.74623 | 7.23403 | 3483 ft | 221 kts | 80° |
| 2026-04-24 21:49 | 50.74839 | 7.25790 | 3263 ft | 219 kts | 76° |
| 2026-04-24 21:50 | 50.75545 | 7.27821 | 3021 ft | 211 kts | 35° |
| 2026-04-24 21:50 | 50.76887 | 7.28504 | 2754 ft | 208 kts | 353° |
| 2026-04-24 21:50 | 50.78172 | 7.27518 | 2417 ft | 211 kts | 315° |
| 2026-04-24 21:50 | 50.79160 | 7.25804 | 2146 ft | 210 kts | 317° |
| 2026-04-24 21:51 | 50.80209 | 7.24285 | 1852 ft | 199 kts | 320° |
| 2026-04-24 21:51 | 50.81068 | 7.23055 | 1622 ft | 190 kts | 319° |
| 2026-04-24 21:51 | 50.82020 | 7.21672 | 1351 ft | 179 kts | 318° |
| 2026-04-24 21:51 | 50.82898 | 7.20392 | 1135 ft | 163 kts | 318° |
| 2026-04-24 21:52 | 50.83690 | 7.19241 | 899 ft | 144 kts | 318° |
| 2026-04-24 21:52 | 50.84391 | 7.18221 | 687 ft | 134 kts | 317° |
| 2026-04-24 21:52 | 50.85076 | 7.17211 | 481 ft | 134 kts | 317° |
| 2026-04-24 21:52 | 50.85747 | 7.16242 | 326 ft | 131 kts | 317° |
| 2026-04-24 21:53 | 50.86380 | 7.15317 | 285 ft | 111 kts | 319° |
| 2026-04-24 21:53 | 50.86844 | 7.14649 | 262 ft | 78 kts | 317° |
| 2026-04-24 21:53 | 50.87155 | 7.14200 | 248 ft | 44 kts | 317° |
| 2026-04-24 21:53 | 50.87271 | 7.13975 | 242 ft | 10 kts | 299° |
| 2026-04-24 21:54 | 50.87303 | 7.13844 | 240 ft | 18 kts | 284° |
| 2026-04-24 21:54 | 50.87327 | 7.13634 | 240 ft | 10 kts | 280° |
| 2026-04-24 21:54 | 50.87339 | 7.13526 | 233 ft | 10 kts | 278° |
| 2026-04-24 21:54 | 50.87347 | 7.13444 | 231 ft | 8 kts | 278° |
| 2026-04-24 21:55 | 50.87363 | 7.13316 | 231 ft | 14 kts | 288° |
| 2026-04-24 21:55 | 50.87422 | 7.13200 | 231 ft | 14 kts | 316° |
| 2026-04-24 21:55 | 50.87490 | 7.13100 | 231 ft | 13 kts | 317° |
| 2026-04-24 21:55 | 50.87556 | 7.13006 | 231 ft | 13 kts | 318° |
| 2026-04-24 21:56 | 50.87621 | 7.12913 | 231 ft | 12 kts | 317° |
| 2026-04-24 21:56 | 50.87685 | 7.12822 | 231 ft | 13 kts | 318° |
| 2026-04-24 21:56 | 50.87752 | 7.12724 | 231 ft | 13 kts | 315° |
| 2026-04-24 21:56 | 50.87771 | 7.12588 | 231 ft | 13 kts | 277° |
| 2026-04-24 21:57 | 50.87796 | 7.12455 | 232 ft | 12 kts | 287° |
| 2026-04-24 21:57 | 50.87801 | 7.12429 | 231 ft | 0 kts | 288° |